Time;durP1;ratioP1;P1;durP2;ratioP2;P2;SDS_P1;SDS_P2;PMS_P1;PMS_P2;Temp;Humidity;BMP_temperature;BMP_pressure;BME280_temperature;BME280_humidity;BME280_pressure;Samples;Min_cycle;Max_cycle;Signal;HPM_P1;HPM_P2
2022/04/17 00:00:12;;;;;;;7.05;4.93;;;;;;;7.12;46.27;102271.13;676231;29;1298;-77
2022/04/17 00:00:33;;;;;;;7.40;5.15;;;;;;;7.10;46.43;102272.75;674007;29;1456;-77
2022/04/17 00:00:53;;;;;;;7.65;5.05;;;;;;;7.14;45.98;102272.94;671733;29;4490;-77
2022/04/17 00:01:14;;;;;;;7.83;5.30;;;;;;;7.12;47.81;102266.78;670958;29;1489;-76
2022/04/17 00:01:34;;;;;;;7.87;5.27;;;;;;;7.12;47.24;102277.19;671969;29;1758;-78
2022/04/17 00:01:55;;;;;;;7.20;5.27;;;;;;;7.08;48.28;102264.91;676783;29;1662;-77
2022/04/17 00:02:15;;;;;;;7.72;5.50;;;;;;;7.04;48.45;102268.22;675425;29;1217;-76
2022/04/17 00:02:39;;;;;;;6.90;4.80;;;;;;;6.99;47.24;102259.38;676881;29;1834;-77
2022/04/17 00:03:00;;;;;;;7.15;4.95;;;;;;;6.96;46.72;102265.38;678312;29;1515;-77
2022/04/17 00:03:24;;;;;;;8.07;4.90;;;;;;;7.01;46.53;102265.53;673546;29;1656;-76
2022/04/17 00:03:44;;;;;;;7.85;5.03;;;;;;;7.06;46.83;102265.69;671892;29;1911;-77
2022/04/17 00:04:05;;;;;;;7.90;4.82;;;;;;;7.03;47.20;102258.66;675702;29;4481;-77
2022/04/17 00:04:25;;;;;;;7.40;4.90;;;;;;;7.01;47.65;102262.94;676526;29;1510;-78
2022/04/17 00:04:46;;;;;;;7.35;5.07;;;;;;;7.03;47.20;102261.25;675610;28;1114;-77
2022/04/17 00:05:07;;;;;;;7.43;5.20;;;;;;;7.04;47.10;102268.22;674857;29;1382;-77
2022/04/17 00:05:28;;;;;;;7.10;5.00;;;;;;;7.04;46.79;102267.34;677097;29;1369;-77
2022/04/17 00:05:51;;;;;;;6.70;4.90;;;;;;;7.01;47.95;102262.94;676656;29;1159;-76
2022/04/17 00:06:13;;;;;;;7.78;4.90;;;;;;;7.05;47.76;102263.91;678721;28;1347;-76
2022/04/17 00:06:34;;;;;;;7.88;4.90;;;;;;;7.05;47.13;102259.59;679495;29;1523;-76
2022/04/17 00:06:55;;;;;;;8.15;5.15;;;;;;;7.05;47.41;102262.19;675437;29;4371;-77
2022/04/17 00:07:15;;;;;;;7.28;5.22;;;;;;;7.11;48.07;102264.13;676202;29;1298;-77
2022/04/17 00:07:35;;;;;;;7.20;5.10;;;;;;;7.08;48.23;102267.50;676535;29;1636;-77
2022/04/17 00:07:56;;;;;;;6.65;4.82;;;;;;;7.07;48.28;102259.66;677522;29;1327;-77
2022/04/17 00:08:17;;;;;;;6.40;4.60;;;;;;;7.02;49.71;102258.59;680129;29;1487;-77
2022/04/17 00:08:37;;;;;;;7.47;4.93;;;;;;;7.01;49.73;102262.06;677142;29;1278;-77
2022/04/17 00:08:57;;;;;;;7.23;5.10;;;;;;;6.96;49.27;102262.78;675035;29;949;-76
2022/04/17 00:09:18;;;;;;;7.38;4.90;;;;;;;6.92;47.43;102258.28;676897;29;1165;-77
2022/04/17 00:09:39;;;;;;;7.03;4.80;;;;;;;6.89;49.21;102259.88;671470;29;1414;-77
2022/04/17 00:10:00;;;;;;;7.00;4.90;;;;;;;6.93;47.62;102253.97;673419;29;4504;-77
2022/04/17 00:10:21;;;;;;;7.90;5.05;;;;;;;6.97;47.53;102258.44;671006;29;1451;-76
2022/04/17 00:10:44;;;;;;;7.50;5.03;;;;;;;7.05;46.33;102263.91;675448;29;1401;-77
2022/04/17 00:11:05;;;;;;;7.38;5.25;;;;;;;6.99;46.86;102260.28;675899;29;996;-78
2022/04/17 00:11:25;;;;;;;8.52;5.35;;;;;;;7.04;48.32;102255.22;677379;29;1119;-77
2022/04/17 00:11:46;;;;;;;8.17;5.10;;;;;;;7.03;48.24;102255.19;673139;29;1445;-76
2022/04/17 00:12:07;;;;;;;8.27;5.13;;;;;;;6.98;47.71;102250.69;668365;29;1595;-76
2022/04/17 00:12:27;;;;;;;7.75;5.07;;;;;;;6.97;47.71;102253.25;669673;29;1398;-77
2022/04/17 00:12:48;;;;;;;6.90;5.03;;;;;;;6.95;47.58;102253.19;671485;29;1358;-77
2022/04/17 00:13:08;;;;;;;7.00;4.70;;;;;;;6.92;49.08;102252.19;673511;29;4555;-77
2022/04/17 00:13:29;;;;;;;7.80;4.88;;;;;;;6.92;50.23;102257.38;676081;29;1675;-77
2022/04/17 00:13:49;;;;;;;7.37;5.00;;;;;;;6.94;50.93;102256.63;677028;29;1632;-77
2022/04/17 00:14:12;;;;;;;7.63;5.17;;;;;;;6.92;49.38;102254.78;678982;29;983;-77
2022/04/17 00:14:33;;;;;;;7.13;5.03;;;;;;;6.90;47.50;102262.53;679453;28;1549;-77
2022/04/17 00:14:55;;;;;;;7.30;4.90;;;;;;;6.90;48.12;102256.47;681184;28;1388;-76
2022/04/17 00:15:15;;;;;;;7.10;4.95;;;;;;;6.90;47.69;102253.88;679521;28;1418;-77
2022/04/17 00:15:36;;;;;;;6.75;5.03;;;;;;;6.90;48.04;102253.88;678612;28;1425;-77
2022/04/17 00:15:56;;;;;;;6.72;5.32;;;;;;;6.88;48.94;102256.41;676521;29;4603;-78
2022/04/17 00:16:17;;;;;;;8.33;5.60;;;;;;;6.90;49.24;102264.25;674725;29;1056;-76
2022/04/17 00:16:40;;;;;;;7.93;4.97;;;;;;;6.91;49.90;102256.50;677501;29;3890;-77
2022/04/17 00:17:06;;;;;;;7.03;5.10;;;;;;;6.88;48.47;102255.50;676900;29;1316;-77
2022/04/17 00:17:26;;;;;;;7.03;4.93;;;;;;;6.90;49.31;102256.47;675983;29;1257;-77
2022/04/17 00:17:47;;;;;;;6.70;5.10;;;;;;;6.87;49.38;102261.53;676239;29;972;-77
2022/04/17 00:18:08;;;;;;;7.80;4.90;;;;;;;6.86;48.34;102258.06;678129;29;1656;-77
2022/04/17 00:18:29;;;;;;;6.93;4.93;;;;;;;6.84;48.87;102257.13;680947;28;1357;-77
2022/04/17 00:18:49;;;;;;;7.70;5.20;;;;;;;6.81;48.85;102257.91;678550;29;1133;-77
2022/04/17 00:19:09;;;;;;;7.63;4.80;;;;;;;6.79;50.74;102254.34;678092;28;4302;-77
2022/04/17 00:19:30;;;;;;;7.57;5.00;;;;;;;6.79;50.00;102250.88;680953;29;1421;-78
2022/04/17 00:19:51;;;;;;;7.75;5.00;;;;;;;6.77;49.90;102261.22;678426;28;1797;-76
2022/04/17 00:20:14;;;;;;;6.75;4.93;;;;;;;6.79;49.36;102258.66;680756;29;1458;-77
2022/04/17 00:20:36;;;;;;;6.72;5.18;;;;;;;6.82;48.06;102253.56;676560;29;1432;-76
2022/04/17 00:20:58;;;;;;;7.28;4.82;;;;;;;6.84;49.11;102258.81;676384;29;1307;-77
2022/04/17 00:21:20;;;;;;;7.13;4.75;;;;;;;6.80;48.43;102263.91;674573;29;1181;-77
2022/04/17 00:21:41;;;;;;;7.35;4.97;;;;;;;6.88;49.26;102250.31;673290;29;1270;-76
2022/04/17 00:22:01;;;;;;;8.32;5.07;;;;;;;6.85;48.15;102258.00;672968;29;4485;-77
2022/04/17 00:22:23;;;;;;;7.93;5.13;;;;;;;6.89;47.98;102257.28;674108;29;1241;-77
2022/04/17 00:22:44;;;;;;;7.47;4.95;;;;;;;6.87;49.81;102258.94;676152;29;1720;-77
2022/04/17 00:23:04;;;;;;;6.72;5.20;;;;;;;6.86;49.73;102259.78;674139;29;1345;-77
2022/04/17 00:23:25;;;;;;;7.18;5.10;;;;;;;6.87;49.07;102265.03;678469;29;1614;-77
2022/04/17 00:23:45;;;;;;;7.47;5.30;;;;;;;6.84;49.75;102258.81;675920;28;1980;-76
2022/04/17 00:24:06;;;;;;;6.55;4.90;;;;;;;6.78;50.77;102255.19;674719;29;1402;-77
2022/04/17 00:24:27;;;;;;;6.30;4.93;;;;;;;6.80;52.36;102257.84;673197;29;1377;-78
2022/04/17 00:24:47;;;;;;;6.32;4.90;;;;;;;6.85;50.29;102255.41;674032;29;1616;-77
2022/04/17 00:25:08;;;;;;;6.15;4.88;;;;;;;6.81;51.00;102254.41;676648;29;4316;-77
2022/04/17 00:25:29;;;;;;;6.90;4.80;;;;;;;6.85;51.80;102255.41;677154;29;1581;-77
2022/04/17 00:25:50;;;;;;;6.55;4.97;;;;;;;6.80;50.69;102253.53;676817;29;1299;-77
2022/04/17 00:26:10;;;;;;;6.70;4.93;;;;;;;6.87;51.30;102256.31;675972;29;1153;-77
2022/04/17 00:26:31;;;;;;;7.07;4.78;;;;;;;6.79;52.00;102256.94;674388;29;1307;-76
2022/04/17 00:26:51;;;;;;;7.03;5.03;;;;;;;6.76;51.59;102258.56;674413;29;1523;-77
2022/04/17 00:27:12;;;;;;;6.67;5.03;;;;;;;6.71;50.55;102260.09;677158;28;1454;-77
2022/04/17 00:27:34;;;;;;;6.55;4.95;;;;;;;6.67;52.13;102253.03;673040;29;1627;-76
2022/04/17 00:27:55;;;;;;;6.95;4.80;;;;;;;6.62;51.81;102264.13;675057;29;4657;-76
2022/04/17 00:28:15;;;;;;;6.77;4.80;;;;;;;6.59;52.18;102265.72;675075;29;1058;-77
2022/04/17 00:28:36;;;;;;;6.40;4.70;;;;;;;6.58;51.88;102269.16;678443;28;1623;-76
2022/04/17 00:28:57;;;;;;;6.60;4.90;;;;;;;6.60;50.17;102265.78;680186;28;1498;-76
2022/04/17 00:29:18;;;;;;;6.63;4.85;;;;;;;6.56;51.24;102263.91;676565;29;1583;-77
2022/04/17 00:29:38;;;;;;;7.47;4.80;;;;;;;6.53;51.16;102260.31;676900;28;1514;-77
2022/04/17 00:29:59;;;;;;;6.90;4.63;;;;;;;6.60;50.00;102255.38;678753;28;1326;-77
2022/04/17 00:30:19;;;;;;;7.03;4.70;;;;;;;6.62;49.22;102264.13;681134;28;1483;-76
2022/04/17 00:30:39;;;;;;;6.82;5.13;;;;;;;6.63;49.71;102254.59;678949;28;1492;-77
2022/04/17 00:30:59;;;;;;;6.80;5.27;;;;;;;6.64;49.73;102266.78;678101;28;4376;-77
2022/04/17 00:31:20;;;;;;;7.57;5.03;;;;;;;6.65;48.82;102259.03;679216;28;2124;-76
2022/04/17 00:31:40;;;;;;;7.63;5.10;;;;;;;6.64;49.02;102262.47;679777;29;1427;-77
2022/04/17 00:32:01;;;;;;;6.80;4.97;;;;;;;6.71;48.52;102262.69;678763;29;1608;-76
2022/04/17 00:32:22;;;;;;;6.93;5.05;;;;;;;6.68;49.88;102262.59;679434;29;1490;-76
2022/04/17 00:32:43;;;;;;;7.57;5.32;;;;;;;6.68;48.96;102257.41;677640;29;1688;-76
2022/04/17 00:33:03;;;;;;;6.93;5.25;;;;;;;6.68;48.94;102260.88;677834;29;1316;-77
2022/04/17 00:33:24;;;;;;;6.97;5.18;;;;;;;6.68;49.41;102253.06;679578;28;1649;-76
2022/04/17 00:33:44;;;;;;;6.80;4.87;;;;;;;6.79;48.30;102251.75;682039;28;1597;-77
2022/04/17 00:34:05;;;;;;;7.38;5.10;;;;;;;6.77;49.38;102263.81;672788;28;4376;-77
2022/04/17 00:34:26;;;;;;;6.20;4.90;;;;;;;6.71;50.27;102260.97;681200;28;1618;-77
2022/04/17 00:34:46;;;;;;;7.25;5.15;;;;;;;6.80;51.75;102256.13;678401;29;1707;-76
2022/04/17 00:35:08;;;;;;;7.37;5.07;;;;;;;6.81;51.15;102250.09;679345;29;1708;-77
2022/04/17 00:35:29;;;;;;;7.35;4.90;;;;;;;6.84;49.42;102254.53;678884;28;1318;-76
2022/04/17 00:35:49;;;;;;;8.60;5.30;;;;;;;6.80;49.04;102263.91;677450;29;1516;-77
2022/04/17 00:36:09;;;;;;;7.97;5.13;;;;;;;6.78;49.30;102250.00;678820;29;1490;-78
2022/04/17 00:36:30;;;;;;;7.33;5.10;;;;;;;6.82;49.13;102253.56;676450;29;1396;-76
2022/04/17 00:36:50;;;;;;;7.43;5.37;;;;;;;6.82;49.26;102245.78;676656;29;1529;-76
2022/04/17 00:37:11;;;;;;;6.70;5.17;;;;;;;6.84;48.47;102248.44;675263;29;4467;-77
2022/04/17 00:37:32;;;;;;;7.07;5.20;;;;;;;6.82;48.52;102250.97;676586;29;1360;-77
2022/04/17 00:37:52;;;;;;;7.82;5.13;;;;;;;6.80;49.29;102248.31;676737;29;1471;-76
2022/04/17 00:38:13;;;;;;;7.07;5.10;;;;;;;6.87;49.28;102245.94;674522;29;1202;-76
2022/04/17 00:38:33;;;;;;;7.25;5.18;;;;;;;6.90;49.02;102244.34;677984;28;1661;-77
2022/04/17 00:38:53;;;;;;;7.27;5.10;;;;;;;6.86;49.88;102246.78;679084;29;4540;-77
2022/04/17 00:39:14;;;;;;;6.90;4.90;;;;;;;6.92;49.72;102247.91;673396;29;1307;-77
2022/04/17 00:39:34;;;;;;;7.53;5.00;;;;;;;6.93;48.60;102239.25;673402;29;1372;-77
2022/04/17 00:39:55;;;;;;;7.38;4.97;;;;;;;6.89;48.28;102239.97;679603;28;5508;-77
2022/04/17 00:40:15;;;;;;;7.37;5.00;;;;;;;6.95;48.04;102244.50;679747;28;1450;-77
2022/04/17 00:40:36;;;;;;;6.93;5.05;;;;;;;6.93;48.31;102239.25;678050;29;1434;-77
2022/04/17 00:40:56;;;;;;;6.70;5.10;;;;;;;6.88;48.82;102240.81;679124;28;1345;-76
2022/04/17 00:41:17;;;;;;;7.07;5.20;;;;;;;6.83;49.78;102242.34;682046;28;1519;-76
2022/04/17 00:41:37;;;;;;;7.22;4.80;;;;;;;6.82;48.40;102244.06;681249;28;1590;-77
2022/04/17 00:42:00;;;;;;;7.93;5.03;;;;;;;6.81;48.65;102242.31;680836;28;1329;-77
2022/04/17 00:42:21;;;;;;;8.07;5.30;;;;;;;6.82;48.24;102245.78;681392;28;1563;-77
2022/04/17 00:42:44;;;;;;;7.47;5.30;;;;;;;6.80;48.79;102240.53;676009;29;1253;-76
2022/04/17 00:43:25;;;;;;;7.55;5.00;;;;;;;6.78;48.93;102239.59;675420;29;5604;-78
2022/04/17 00:43:48;;;;;;;7.90;5.10;;;;;;;6.78;48.47;102237.00;675154;29;2057;-76
2022/04/17 00:44:13;;;;;;;8.07;4.93;;;;;;;6.75;48.47;102234.25;677031;29;1288;-76
2022/04/17 00:44:37;;;;;;;7.90;5.30;;;;;;;6.76;48.40;102246.44;674354;29;1409;-77
2022/04/17 00:44:57;;;;;;;7.22;5.03;;;;;;;6.73;50.79;102242.84;672773;29;1428;-76
2022/04/17 00:45:18;;;;;;;8.40;5.73;;;;;;;6.74;51.14;102240.31;673767;29;1357;-77
2022/04/17 00:45:38;;;;;;;8.60;5.80;;;;;;;6.73;51.48;102241.13;677007;29;1233;-77
2022/04/17 00:46:00;;;;;;;7.75;5.05;;;;;;;6.75;51.38;102244.66;678723;28;5500;-77
2022/04/17 00:46:20;;;;;;;6.88;5.00;;;;;;;6.79;50.81;102241.34;676897;29;1300;-77
2022/04/17 00:46:41;;;;;;;6.80;5.30;;;;;;;6.76;51.96;102243.84;678449;28;1345;-76
2022/04/17 00:47:01;;;;;;;6.97;5.25;;;;;;;6.71;49.79;102240.19;679821;29;1487;-77
2022/04/17 00:47:22;;;;;;;7.47;5.10;;;;;;;6.69;50.89;102241.84;678858;29;1147;-77
2022/04/17 00:47:42;;;;;;;7.57;5.10;;;;;;;6.64;49.15;102233.88;676254;29;1296;-76
2022/04/17 00:48:03;;;;;;;6.97;5.03;;;;;;;6.62;50.05;102242.47;676194;29;1262;-76
2022/04/17 00:48:23;;;;;;;7.30;4.85;;;;;;;6.65;49.11;102238.25;675229;29;1599;-76
2022/04/17 00:48:44;;;;;;;7.35;4.93;;;;;;;6.69;50.46;102239.25;675249;29;1538;-76
2022/04/17 00:49:04;;;;;;;7.07;4.97;;;;;;;6.64;50.49;102241.66;677114;29;4396;-76
2022/04/17 00:49:25;;;;;;;6.85;4.95;;;;;;;6.67;49.03;102240.03;676785;29;1055;-76
2022/04/17 00:49:46;;;;;;;6.95;4.95;;;;;;;6.71;48.66;102237.59;678985;28;1524;-77
2022/04/17 00:50:07;;;;;;;7.05;5.00;;;;;;;6.70;49.08;102241.03;683746;28;1743;-77
2022/04/17 00:50:27;;;;;;;6.90;5.10;;;;;;;6.75;49.85;102241.19;682441;28;1648;-77
2022/04/17 00:50:51;;;;;;;7.40;5.40;;;;;;;6.68;50.25;102237.47;682735;28;1362;-77
2022/04/17 00:51:13;;;;;;;8.02;5.22;;;;;;;6.73;49.65;102235.94;678790;29;1496;-77
2022/04/17 00:51:35;;;;;;;6.90;5.10;;;;;;;6.82;49.52;102240.56;679176;29;1432;-77
2022/04/17 00:51:55;;;;;;;6.82;4.78;;;;;;;6.79;50.96;102236.16;678406;29;4406;-77
2022/04/17 00:52:16;;;;;;;7.47;4.93;;;;;;;6.78;49.93;102238.69;679416;29;1173;-77
2022/04/17 00:52:38;;;;;;;7.40;5.13;;;;;;;6.74;50.70;102235.13;677741;29;1257;-77
2022/04/17 00:52:59;;;;;;;7.63;4.90;;;;;;;6.68;49.80;102241.81;678138;29;986;-77
2022/04/17 00:53:24;;;;;;;7.88;4.75;;;;;;;6.69;50.50;102236.66;678996;29;1466;-78
2022/04/17 00:53:45;;;;;;;6.97;4.82;;;;;;;6.67;50.46;102234.81;676794;28;1477;-77
2022/04/17 00:54:08;;;;;;;7.22;4.70;;;;;;;6.63;52.92;102247.72;676055;29;1239;-77
2022/04/17 00:54:30;;;;;;;6.65;4.80;;;;;;;6.61;52.72;102244.16;674385;29;1337;-76
2022/04/17 00:54:52;;;;;;;6.78;4.80;;;;;;;6.60;51.38;102238.91;677649;29;1432;-77
2022/04/17 00:55:15;;;;;;;7.22;4.75;;;;;;;6.58;50.53;102231.06;675699;29;4310;-77
2022/04/17 00:55:35;;;;;;;6.97;4.80;;;;;;;6.56;52.23;102243.13;676418;29;1607;-77
2022/04/17 00:55:57;;;;;;;6.80;4.90;;;;;;;6.54;53.00;102243.91;677042;29;1718;-77
2022/04/17 00:56:17;;;;;;;6.45;4.82;;;;;;;6.62;50.43;102237.28;676216;29;1237;-77
2022/04/17 00:56:38;;;;;;;6.87;5.00;;;;;;;6.60;50.25;102244.09;681693;28;1212;-77
2022/04/17 00:56:59;;;;;;;6.72;4.95;;;;;;;6.64;50.44;102240.78;681225;28;1058;-77
2022/04/17 00:57:22;;;;;;;7.70;5.13;;;;;;;6.62;51.25;102237.28;679323;29;1291;-76
2022/04/17 00:57:42;;;;;;;7.43;5.30;;;;;;;6.59;50.18;102240.63;674455;29;1431;-77
2022/04/17 00:58:03;;;;;;;7.75;5.15;;;;;;;6.59;49.89;102239.72;674387;29;4320;-75
2022/04/17 00:58:26;;;;;;;7.67;4.93;;;;;;;6.55;52.19;102236.16;675701;29;1339;-77
2022/04/17 00:58:46;;;;;;;7.05;4.78;;;;;;;6.50;53.24;102232.50;676536;29;1305;-77
2022/04/17 00:59:11;;;;;;;6.28;4.70;;;;;;;6.47;52.85;102232.38;676494;29;1175;-77
2022/04/17 00:59:32;;;;;;;6.65;4.90;;;;;;;6.42;52.88;102232.19;678799;28;1380;-77
2022/04/17 00:59:53;;;;;;;7.28;4.90;;;;;;;6.44;51.09;102237.47;676193;29;1318;-77
2022/04/17 01:00:18;;;;;;;7.03;5.10;;;;;;;6.44;50.58;102242.66;679098;29;1114;-77
2022/04/17 01:00:40;;;;;;;7.13;4.90;;;;;;;6.58;50.29;102231.06;677187;29;1376;-77
2022/04/17 01:01:01;;;;;;;7.10;4.90;;;;;;;6.59;50.59;102242.31;676210;29;4339;-77
2022/04/17 01:01:21;;;;;;;7.70;5.05;;;;;;;6.56;49.46;102237.03;675899;29;1212;-77
2022/04/17 01:01:42;;;;;;;8.13;5.10;;;;;;;6.56;49.13;102237.94;678624;29;1524;-77
2022/04/17 01:02:06;;;;;;;8.05;5.10;;;;;;;6.54;49.81;102241.28;677656;29;1272;-77
2022/04/17 01:02:26;;;;;;;6.70;4.75;;;;;;;6.51;50.91;102228.16;674885;29;1493;-77
2022/04/17 01:02:47;;;;;;;6.73;5.03;;;;;;;6.51;51.15;102238.56;678330;28;1349;-77
2022/04/17 01:03:10;;;;;;;7.50;5.13;;;;;;;6.60;50.43;102233.72;675276;29;1608;-77
2022/04/17 01:03:31;;;;;;;7.47;4.80;;;;;;;6.56;52.19;102229.22;675616;29;1117;-77
2022/04/17 01:03:51;;;;;;;7.83;5.20;;;;;;;6.50;52.15;102237.69;676599;29;1907;-77
2022/04/17 01:04:12;;;;;;;7.63;4.83;;;;;;;6.48;53.37;102240.22;679430;28;4446;-77
2022/04/17 01:04:32;;;;;;;8.38;4.78;;;;;;;6.51;53.00;102230.75;682301;28;1797;-77
2022/04/17 01:04:53;;;;;;;8.18;4.85;;;;;;;6.48;53.08;102232.44;678890;28;1181;-77
2022/04/17 01:05:13;;;;;;;7.50;5.03;;;;;;;6.46;53.48;102238.41;676575;29;1242;-77
2022/04/17 01:05:33;;;;;;;7.25;5.18;;;;;;;6.49;53.38;102243.69;678168;29;1292;-77
2022/04/17 01:05:54;;;;;;;6.53;5.27;;;;;;;6.51;53.14;102233.38;677378;29;1281;-78
2022/04/17 01:06:14;;;;;;;6.70;5.28;;;;;;;6.45;54.15;102242.72;676423;29;1216;-77
2022/04/17 01:06:38;;;;;;;7.00;5.10;;;;;;;6.42;53.28;102229.59;676574;29;1279;-77
2022/04/17 01:06:59;;;;;;;7.22;5.00;;;;;;;6.39;53.44;102232.09;677755;28;4494;-77
2022/04/17 01:07:22;;;;;;;7.45;5.00;;;;;;;6.40;53.54;102235.59;675562;29;1161;-77
2022/04/17 01:07:42;;;;;;;7.28;4.90;;;;;;;6.38;53.70;102232.91;678292;29;1300;-77
2022/04/17 01:08:03;;;;;;;7.23;5.00;;;;;;;6.40;53.83;102235.59;678719;29;1187;-77
2022/04/17 01:08:23;;;;;;;7.32;5.15;;;;;;;6.38;53.38;102234.63;676829;29;1225;-78
2022/04/17 01:08:43;;;;;;;7.90;5.27;;;;;;;6.31;51.58;102233.50;677958;29;1383;-77
2022/04/17 01:09:07;;;;;;;8.00;4.95;;;;;;;6.27;51.86;102227.31;677287;29;1165;-77
2022/04/17 01:09:28;;;;;;;7.68;4.90;;;;;;;6.27;50.62;102229.03;676752;29;1443;-77
2022/04/17 01:09:53;;;;;;;8.05;4.90;;;;;;;6.26;50.71;102254.13;674287;29;1419;-77
2022/04/17 01:10:13;;;;;;;6.70;4.72;;;;;;;6.26;50.72;102222.94;675583;29;4775;-77
2022/04/17 01:10:34;;;;;;;6.60;4.57;;;;;;;6.26;52.15;102228.16;676203;29;1200;-77
2022/04/17 01:10:54;;;;;;;6.18;4.50;;;;;;;6.27;51.17;102226.44;674304;29;1359;-77
2022/04/17 01:11:16;;;;;;;7.40;4.70;;;;;;;6.27;50.86;102227.31;674770;29;1216;-77
2022/04/17 01:11:39;;;;;;;7.60;4.93;;;;;;;6.26;50.83;102222.94;675088;29;1202;-77
2022/04/17 01:11:59;;;;;;;6.70;4.57;;;;;;;6.24;52.04;102234.97;674432;29;1181;-77
2022/04/17 01:12:20;;;;;;;6.70;4.70;;;;;;;6.24;52.08;102226.31;677754;29;1424;-77
2022/04/17 01:12:40;;;;;;;6.57;4.93;;;;;;;6.22;52.12;102222.78;673253;29;3579;-77
2022/04/17 01:13:03;;;;;;;7.50;4.90;;;;;;;6.20;53.23;102227.03;677056;28;4316;-77
2022/04/17 01:13:24;;;;;;;6.85;4.90;;;;;;;6.20;52.27;102227.03;677041;29;1360;-77
2022/04/17 01:13:45;;;;;;;7.25;4.85;;;;;;;6.20;52.47;102229.63;675119;29;1616;-78
2022/04/17 01:14:08;;;;;;;7.78;4.75;;;;;;;6.18;52.37;102228.69;676940;29;1387;-77
2022/04/17 01:14:29;;;;;;;7.10;4.72;;;;;;;6.20;53.56;102230.50;673139;29;1289;-77
2022/04/17 01:14:51;;;;;;;6.82;4.70;;;;;;;6.21;54.41;102224.47;676189;29;1593;-77
2022/04/17 01:15:11;;;;;;;7.25;4.93;;;;;;;6.21;54.70;102228.81;677710;29;1129;-77
2022/04/17 01:15:32;;;;;;;6.73;4.83;;;;;;;6.21;55.04;102228.81;677540;29;1238;-77
2022/04/17 01:15:54;;;;;;;6.72;4.80;;;;;;;6.23;53.81;102227.13;679019;29;1225;-77
2022/04/17 01:16:18;;;;;;;7.20;4.80;;;;;;;6.22;53.89;102227.97;680399;29;4592;-77
2022/04/17 01:16:39;;;;;;;6.30;4.50;;;;;;;6.22;54.51;102231.44;676943;29;1639;-78
2022/04/17 01:17:02;;;;;;;6.72;4.60;;;;;;;6.20;54.70;102227.91;674977;29;1335;-78
2022/04/17 01:17:22;;;;;;;6.13;4.50;;;;;;;6.17;53.39;102226.91;674863;29;1522;-77
2022/04/17 01:17:43;;;;;;;6.63;4.90;;;;;;;6.17;51.46;102229.50;672189;29;1608;-78
2022/04/17 01:18:04;;;;;;;7.27;4.90;;;;;;;6.16;53.42;102227.72;673223;29;1111;-77
2022/04/17 01:18:25;;;;;;;7.78;4.78;;;;;;;6.13;53.90;102233.69;676850;29;1476;-78
2022/04/17 01:19:11;;;;;;;6.60;4.83;;;;;;;6.11;53.35;102227.56;677023;29;1512;-77
2022/04/17 01:19:32;;;;;;;6.97;4.75;;;;;;;6.09;54.55;102230.09;677075;29;4788;-77
2022/04/17 01:19:53;;;;;;;7.68;4.78;;;;;;;6.09;54.11;102230.09;680037;29;2336;-77
2022/04/17 01:20:16;;;;;;;8.20;4.78;;;;;;;6.14;53.86;102225.06;678100;28;1458;-77
2022/04/17 01:20:38;;;;;;;8.18;4.65;;;;;;;6.12;55.49;102229.34;679619;29;1679;-77
2022/04/17 01:20:58;;;;;;;6.28;4.53;;;;;;;6.18;54.51;102223.50;678214;29;1487;-77
2022/04/17 01:21:19;;;;;;;6.67;4.57;;;;;;;6.16;54.46;102227.72;680062;29;1234;-77
2022/04/17 01:21:40;;;;;;;6.47;4.60;;;;;;;6.14;52.93;102231.16;679019;29;1554;-76
2022/04/17 01:22:01;;;;;;;6.20;4.60;;;;;;;6.20;51.51;102233.09;678887;28;4325;-77
2022/04/17 01:22:21;;;;;;;5.80;4.10;;;;;;;6.25;51.22;102228.09;678900;28;1678;-77
2022/04/17 01:22:48;;;;;;;6.00;4.30;;;;;;;6.22;51.41;102235.78;679735;28;1440;-77
2022/04/17 01:27:03;;;;;;;7.28;4.85;;;;;;;6.18;54.34;102226.09;681823;28;2138;-77
2022/04/17 01:27:26;;;;;;;7.38;4.57;;;;;;;6.14;53.59;102222.47;682489;28;1339;-77
2022/04/17 01:27:47;;;;;;;6.50;4.60;;;;;;;6.11;54.77;102219.78;681776;28;1604;-77
2022/04/17 01:28:07;;;;;;;6.37;4.40;;;;;;;6.13;54.70;102221.59;680884;28;5113;-77
2022/04/17 01:28:28;;;;;;;6.38;4.60;;;;;;;6.11;55.20;102222.38;681563;28;1644;-77
2022/04/17 01:28:48;;;;;;;6.83;4.43;;;;;;;6.14;54.92;102217.28;679531;29;1562;-77
2022/04/17 01:29:09;;;;;;;6.00;4.50;;;;;;;6.13;55.28;102221.59;678850;29;1677;-77
2022/04/17 01:29:34;;;;;;;5.70;4.38;;;;;;;6.12;54.77;102230.22;678992;29;1449;-77
2022/04/17 01:29:54;;;;;;;6.47;4.50;;;;;;;6.07;55.02;102221.34;679532;29;1358;-77
2022/04/17 01:30:15;;;;;;;5.93;4.40;;;;;;;6.01;56.97;102221.13;679774;29;1609;-77
2022/04/17 01:30:39;;;;;;;5.63;4.20;;;;;;;5.98;56.11;102221.00;679606;28;1470;-77
2022/04/17 01:30:59;;;;;;;6.88;4.47;;;;;;;5.91;56.72;102225.03;680792;28;4349;-77
2022/04/17 01:31:27;;;;;;;6.40;4.43;;;;;;;5.96;53.79;102220.91;678557;28;1225;-77
2022/04/17 01:31:47;;;;;;;6.70;4.50;;;;;;;6.00;53.43;102221.06;681112;28;1272;-77
2022/04/17 01:32:09;;;;;;;7.27;4.63;;;;;;;6.02;52.07;102224.59;679526;28;1695;-77
2022/04/17 01:32:30;;;;;;;7.13;4.60;;;;;;;6.08;52.67;102223.13;675448;29;1598;-77
2022/04/17 01:32:50;;;;;;;7.00;4.50;;;;;;;6.04;54.70;102225.56;674999;29;1839;-77
2022/04/17 01:33:10;;;;;;;6.27;4.20;;;;;;;6.04;52.37;102226.44;673971;29;1357;-77
2022/04/17 01:33:31;;;;;;;6.25;4.40;;;;;;;6.04;53.02;102223.84;674712;29;1582;-77
2022/04/17 01:33:51;;;;;;;6.93;4.50;;;;;;;6.05;52.27;102225.63;675530;29;1118;-77
2022/04/17 01:34:14;;;;;;;6.60;4.40;;;;;;;6.02;54.44;102227.19;674167;29;4310;-77
2022/04/17 01:34:36;;;;;;;6.22;4.38;;;;;;;6.05;55.05;102223.03;677916;28;1874;-77
2022/04/17 01:34:57;;;;;;;6.30;4.40;;;;;;;6.04;52.82;102226.44;681457;28;1284;-77
2022/04/17 01:35:17;;;;;;;6.17;4.30;;;;;;;6.05;54.65;102228.22;678680;29;1457;-77
2022/04/17 01:35:38;;;;;;;6.18;4.20;;;;;;;6.00;55.22;102224.53;678855;29;1467;-78
2022/04/17 01:35:58;;;;;;;6.00;4.40;;;;;;;5.99;53.14;102221.91;677385;29;1457;-77
2022/04/17 01:36:18;;;;;;;6.73;4.60;;;;;;;5.96;55.74;102217.44;677398;29;1652;-77
2022/04/17 01:36:39;;;;;;;6.87;4.40;;;;;;;5.92;56.11;102228.50;676863;29;1413;-76
2022/04/17 01:37:01;;;;;;;6.80;4.53;;;;;;;5.98;54.61;102226.19;675608;29;4505;-77
2022/04/17 01:37:21;;;;;;;6.95;4.40;;;;;;;5.94;54.73;102222.56;678089;29;1358;-77
2022/04/17 01:37:42;;;;;;;5.63;3.93;;;;;;;5.94;56.67;102222.56;677657;29;1194;-78
2022/04/17 01:38:03;;;;;;;6.25;4.15;;;;;;;5.94;55.99;102235.53;680265;29;1448;-77
2022/04/17 01:38:24;;;;;;;7.43;4.40;;;;;;;5.95;55.50;102226.03;681109;29;1476;-77
2022/04/17 01:38:44;;;;;;;7.78;4.38;;;;;;;5.87;56.24;102222.25;676657;29;1281;-77
2022/04/17 01:39:04;;;;;;;7.10;4.30;;;;;;;5.85;56.33;102224.78;677337;29;1363;-78
2022/04/17 01:39:25;;;;;;;6.63;4.13;;;;;;;5.85;53.82;102219.59;676621;29;1493;-78
2022/04/17 01:39:45;;;;;;;7.55;4.78;;;;;;;5.85;54.48;102229.09;676332;29;1302;-77
2022/04/17 01:40:07;;;;;;;6.43;4.30;;;;;;;5.92;52.83;102226.78;674576;29;4607;-77
2022/04/17 01:40:27;;;;;;;6.55;4.43;;;;;;;5.93;53.62;102222.50;678489;29;1347;-77
2022/04/17 01:40:47;;;;;;;6.10;4.33;;;;;;;5.94;53.88;102229.44;675781;29;1241;-77
2022/04/17 01:41:08;;;;;;;6.63;4.30;;;;;;;5.92;55.04;102223.31;678194;29;1365;-77
2022/04/17 01:41:29;;;;;;;7.18;4.57;;;;;;;5.89;56.60;102225.81;681106;29;1312;-77
2022/04/17 01:41:51;;;;;;;6.20;4.32;;;;;;;5.85;57.89;102227.38;681093;29;1126;-77
2022/04/17 01:42:12;;;;;;;6.43;4.43;;;;;;;5.79;56.90;102219.38;678166;29;1307;-77
2022/04/17 01:42:33;;;;;;;6.63;4.20;;;;;;;5.77;59.01;102221.91;678027;29;1082;-77
2022/04/17 01:42:53;;;;;;;6.72;4.38;;;;;;;5.79;55.20;102217.66;677951;28;4345;-77
2022/04/17 01:43:13;;;;;;;6.30;4.00;;;;;;;5.80;55.82;102226.31;678010;29;889;-77
2022/04/17 01:43:33;;;;;;;5.80;4.20;;;;;;;5.76;56.27;102224.41;678735;29;1938;-77
2022/04/17 01:43:54;;;;;;;6.27;4.23;;;;;;;5.74;55.69;102226.06;679196;28;1312;-77
2022/04/17 01:44:18;;;;;;;7.03;4.43;;;;;;;5.73;57.63;102227.78;682172;28;1255;-77
2022/04/17 01:44:39;;;;;;;6.70;4.68;;;;;;;5.72;56.83;102225.09;681447;28;1255;-77
2022/04/17 01:44:59;;;;;;;7.27;4.50;;;;;;;5.70;56.80;102230.25;681102;28;1317;-77
2022/04/17 01:45:19;;;;;;;7.28;4.32;;;;;;;5.68;58.31;102231.03;682598;28;1518;-77
2022/04/17 01:45:42;;;;;;;7.03;4.60;;;;;;;5.68;55.78;102226.72;681140;28;1225;-78
2022/04/17 01:46:02;;;;;;;6.25;4.40;;;;;;;5.71;54.48;102226.84;680807;28;4298;-78
2022/04/17 01:46:23;;;;;;;6.00;4.30;;;;;;;5.73;54.05;102225.19;676827;29;1481;-77
2022/04/17 01:46:44;;;;;;;6.20;4.57;;;;;;;5.75;56.16;102226.13;678689;28;1068;-77